createdAt,value
2022-08-28T00:00:29.618Z,20.17
2022-08-28T00:02:58.221Z,20.25
2022-08-28T00:05:29.454Z,20.33
2022-08-28T00:07:58.087Z,20.43
2022-08-28T00:10:26.884Z,20.44
2022-08-28T00:12:57.407Z,20.44
2022-08-28T00:15:31.780Z,20.47
2022-08-28T00:17:59.975Z,20.53
2022-08-28T00:20:28.605Z,20.53
2022-08-28T00:22:56.523Z,20.53
2022-08-28T00:25:27.355Z,20.41
2022-08-28T00:27:57.439Z,20.46
2022-08-28T00:30:30.186Z,20.48
2022-08-28T00:33:01.281Z,20.47
2022-08-28T00:35:29.586Z,20.48
2022-08-28T00:37:57.941Z,20.48
2022-08-28T00:40:32.414Z,20.51
2022-08-28T00:43:01.768Z,20.48
2022-08-28T00:45:36.003Z,20.50
2022-08-28T00:48:06.741Z,20.47
2022-08-28T00:51:00.414Z,20.44
2022-08-28T00:53:29.053Z,20.42
2022-08-28T00:56:00.829Z,20.47
2022-08-28T00:58:28.519Z,20.43
2022-08-28T01:00:57.545Z,20.44
2022-08-28T01:03:26.543Z,20.43
2022-08-28T01:05:54.699Z,20.41
2022-08-28T01:08:23.038Z,20.43
2022-08-28T01:10:56.521Z,20.48
2022-08-28T01:13:26.769Z,20.51
2022-08-28T01:15:55.652Z,20.51
2022-08-28T01:18:26.058Z,20.44
2022-08-28T01:21:00.539Z,20.36
2022-08-28T01:23:45.674Z,20.34
2022-08-28T01:26:13.358Z,20.28
2022-08-28T01:28:41.315Z,20.26
2022-08-28T01:31:11.339Z,20.32
2022-08-28T01:33:41.368Z,20.26
2022-08-28T01:36:12.107Z,20.29
2022-08-28T01:38:40.328Z,20.28
2022-08-28T01:41:09.715Z,20.27
2022-08-28T01:43:37.445Z,20.25
2022-08-28T01:46:06.415Z,20.19
2022-08-28T01:48:36.798Z,20.07
2022-08-28T01:51:05.844Z,19.97
2022-08-28T01:53:34.740Z,19.75
2022-08-28T01:56:05.488Z,19.51
2022-08-28T01:58:38.274Z,19.32
2022-08-28T02:01:10.717Z,19.11
2022-08-28T02:03:38.629Z,19.21
2022-08-28T02:06:07.032Z,19.39
2022-08-28T02:08:34.689Z,19.51
2022-08-28T02:11:02.324Z,19.58
2022-08-28T02:13:29.987Z,19.69
2022-08-28T02:15:59.476Z,19.77
2022-08-28T02:18:27.216Z,19.87
2022-08-28T02:20:54.865Z,19.79
2022-08-28T02:23:22.870Z,19.80
2022-08-28T02:25:50.785Z,19.77
2022-08-28T02:28:18.586Z,19.84
2022-08-28T02:30:46.445Z,19.93
2022-08-28T02:33:16.074Z,19.97
2022-08-28T02:35:44.321Z,19.96
2022-08-28T02:38:12.123Z,19.96
2022-08-28T02:40:41.182Z,19.84
2022-08-28T02:43:08.861Z,19.79
2022-08-28T02:45:37.020Z,19.83
2022-08-28T02:48:05.373Z,19.88
2022-08-28T02:50:46.125Z,19.89
2022-08-28T02:53:14.460Z,19.88
2022-08-28T02:55:42.115Z,19.86
2022-08-28T02:58:10.109Z,19.88
2022-08-28T03:00:37.768Z,19.73
2022-08-28T03:03:05.511Z,19.60
2022-08-28T03:05:33.103Z,19.49
2022-08-28T03:08:02.090Z,19.45
2022-08-28T03:10:29.693Z,19.27
2022-08-28T03:12:57.376Z,19.24
2022-08-28T03:15:25.095Z,19.26
2022-08-28T03:17:52.745Z,19.39
2022-08-28T03:20:20.566Z,19.46
2022-08-28T03:23:07.898Z,19.56
2022-08-28T03:25:37.042Z,19.55
2022-08-28T03:28:05.012Z,19.63
2022-08-28T03:30:32.771Z,19.69
2022-08-28T03:33:01.072Z,19.70
2022-08-28T03:35:28.750Z,19.70
2022-08-28T03:37:56.355Z,19.68
2022-08-28T03:40:24.528Z,19.66
2022-08-28T03:42:53.796Z,19.70
2022-08-28T03:45:22.286Z,19.75
2022-08-28T03:47:50.852Z,19.75
2022-08-28T03:50:19.799Z,19.71
2022-08-28T03:52:47.678Z,19.75
2022-08-28T03:55:15.750Z,19.73
2022-08-28T03:57:43.473Z,19.71
2022-08-28T04:00:14.353Z,19.74
2022-08-28T04:02:42.502Z,19.75
2022-08-28T04:05:11.206Z,19.77
2022-08-28T04:07:39.379Z,19.85
2022-08-28T04:10:08.444Z,19.87
2022-08-28T04:12:37.092Z,19.91
2022-08-28T04:15:07.124Z,19.91
2022-08-28T04:17:38.591Z,19.91
2022-08-28T04:20:07.778Z,19.93
2022-08-28T04:22:37.097Z,19.94
2022-08-28T04:25:05.398Z,19.92
2022-08-28T04:27:33.106Z,19.94
2022-08-28T04:30:00.924Z,19.95
2022-08-28T04:32:28.888Z,19.98
2022-08-28T04:34:57.826Z,19.96
2022-08-28T04:37:25.468Z,19.96
2022-08-28T04:39:55.752Z,19.92
2022-08-28T04:42:23.521Z,19.94
2022-08-28T04:44:51.332Z,19.93
2022-08-28T04:47:18.969Z,19.96
2022-08-28T04:49:46.595Z,19.98
2022-08-28T04:52:15.601Z,19.98
2022-08-28T04:54:43.177Z,20.01
2022-08-28T04:57:10.785Z,20.03
2022-08-28T04:59:39.062Z,20.03
2022-08-28T05:02:06.752Z,20.01
2022-08-28T05:04:34.432Z,19.92
2022-08-28T05:07:02.149Z,19.91
2022-08-28T05:09:31.803Z,19.97
2022-08-28T05:12:03.723Z,19.87
2022-08-28T05:14:31.536Z,19.87
2022-08-28T05:16:59.834Z,19.93
2022-08-28T05:19:28.998Z,19.97
2022-08-28T05:21:56.645Z,20.02
2022-08-28T05:24:24.326Z,20.08
2022-08-28T05:26:53.300Z,20.12
2022-08-28T05:29:21.068Z,20.12
2022-08-28T05:31:52.953Z,20.14
2022-08-28T05:34:21.713Z,20.08
2022-08-28T05:36:49.386Z,20.19
2022-08-28T05:39:18.280Z,20.27
2022-08-28T05:41:46.536Z,20.32
2022-08-28T05:44:17.805Z,20.36
2022-08-28T05:46:48.402Z,20.41
2022-08-28T05:49:17.709Z,20.42
2022-08-28T05:51:45.456Z,20.43
2022-08-28T05:54:14.796Z,20.39
2022-08-28T05:56:44.120Z,20.45
2022-08-28T05:59:13.410Z,20.53
2022-08-28T06:01:45.573Z,20.56
2022-08-28T06:04:17.539Z,20.58
2022-08-28T06:06:46.113Z,20.66
2022-08-28T06:09:15.881Z,20.70
2022-08-28T06:11:46.241Z,20.68
2022-08-28T06:14:16.532Z,20.72
2022-08-28T06:16:49.495Z,20.77
2022-08-28T06:19:18.883Z,20.80
2022-08-28T06:21:48.159Z,20.79
2022-08-28T06:24:15.974Z,20.80
2022-08-28T06:26:43.630Z,20.83
2022-08-28T06:29:13.670Z,20.95
2022-08-28T06:31:41.354Z,20.99
2022-08-28T06:34:10.570Z,21.04
2022-08-28T06:36:41.675Z,21.11
2022-08-28T06:39:11.043Z,21.20
2022-08-28T06:41:42.825Z,21.27
2022-08-28T06:44:12.385Z,21.40
2022-08-28T06:46:40.960Z,21.34
2022-08-28T06:49:10.022Z,21.40
2022-08-28T06:51:38.313Z,21.35
2022-08-28T06:54:06.455Z,21.34
2022-08-28T06:56:34.523Z,21.19
2022-08-28T06:59:02.720Z,21.21
2022-08-28T07:01:32.944Z,21.35
2022-08-28T07:04:03.936Z,21.45
2022-08-28T07:06:35.380Z,21.55
2022-08-28T07:09:05.163Z,21.61
2022-08-28T07:11:34.516Z,21.62
2022-08-28T07:14:02.963Z,21.65
2022-08-28T07:16:33.085Z,21.69
2022-08-28T07:19:03.392Z,21.71
2022-08-28T07:21:31.901Z,21.79
2022-08-28T07:24:03.263Z,21.93
2022-08-28T07:26:30.942Z,21.92
2022-08-28T07:29:09.971Z,21.96
2022-08-28T07:31:40.680Z,21.97
2022-08-28T07:34:09.449Z,22.06
2022-08-28T07:36:37.373Z,22.06
2022-08-28T07:39:07.456Z,22.10
2022-08-28T07:41:39.095Z,22.24
2022-08-28T07:44:25.432Z,22.40
2022-08-28T07:46:54.931Z,22.57
2022-08-28T07:49:23.668Z,22.65
2022-08-28T07:51:54.218Z,22.81
2022-08-28T07:54:23.632Z,22.77
2022-08-28T07:56:52.585Z,22.78
2022-08-28T07:59:22.129Z,22.87
2022-08-28T08:01:52.145Z,22.86
2022-08-28T08:04:21.993Z,22.90
2022-08-28T08:06:55.622Z,22.99
2022-08-28T08:09:27.380Z,23.00
2022-08-28T08:11:57.265Z,23.13
2022-08-28T08:14:25.573Z,23.16
2022-08-28T08:16:53.409Z,23.20
2022-08-28T08:19:21.391Z,23.21
2022-08-28T08:21:53.280Z,23.26
2022-08-28T08:24:25.737Z,23.38
2022-08-28T08:26:59.624Z,23.43
2022-08-28T08:29:29.504Z,23.41
2022-08-28T08:31:58.760Z,23.46
2022-08-28T08:34:26.725Z,23.44
2022-08-28T08:36:55.074Z,23.15
2022-08-28T08:39:22.689Z,23.48
2022-08-28T08:41:53.026Z,23.62
2022-08-28T08:44:28.065Z,23.66
2022-08-28T08:47:14.083Z,23.80
2022-08-28T08:49:48.799Z,23.95
2022-08-28T08:52:28.997Z,24.11
2022-08-28T08:55:07.111Z,24.24
2022-08-28T08:57:37.623Z,24.26
2022-08-28T09:00:13.671Z,24.45
2022-08-28T09:02:49.288Z,24.58
2022-08-28T09:05:19.946Z,24.49
2022-08-28T09:07:56.584Z,24.55
2022-08-28T09:10:25.314Z,24.62
2022-08-28T09:12:58.695Z,24.49
2022-08-28T09:15:32.874Z,24.57
2022-08-28T09:18:11.656Z,24.53
2022-08-28T09:20:39.673Z,24.41
2022-08-28T09:23:12.730Z,24.50
2022-08-28T09:25:48.614Z,24.51
2022-08-28T09:28:22.702Z,24.70
2022-08-28T09:31:04.902Z,24.59
2022-08-28T09:33:41.764Z,24.76
2022-08-28T09:36:32.704Z,24.93
2022-08-28T09:39:09.847Z,25.00
2022-08-28T09:42:11.933Z,25.04
2022-08-28T09:44:52.183Z,25.18
2022-08-28T09:47:48.680Z,25.27
2022-08-28T09:50:20.913Z,25.36
2022-08-28T09:52:48.946Z,25.35
2022-08-28T09:55:26.609Z,25.54
2022-08-28T09:57:55.340Z,25.71
2022-08-28T10:00:23.757Z,25.79
2022-08-28T10:03:03.296Z,25.67
2022-08-28T10:05:41.544Z,25.79
2022-08-28T10:08:27.396Z,25.83
2022-08-28T10:10:58.665Z,25.63
2022-08-28T10:13:31.448Z,25.47
2022-08-28T10:16:21.002Z,25.40
2022-08-28T10:18:56.334Z,25.43
2022-08-28T10:21:30.425Z,25.39
2022-08-28T10:24:27.444Z,25.56
2022-08-28T10:27:06.316Z,25.64
2022-08-28T10:29:45.447Z,25.65
2022-08-28T10:32:28.192Z,25.81
2022-08-28T10:35:06.909Z,26.10
2022-08-28T10:37:49.015Z,26.14
2022-08-28T10:40:24.339Z,26.22
2022-08-28T10:42:56.990Z,26.21
2022-08-28T10:45:26.649Z,26.05
2022-08-28T10:47:58.608Z,26.08
2022-08-28T10:50:31.008Z,25.96
2022-08-28T10:53:02.718Z,26.10
2022-08-28T10:55:36.817Z,26.10
2022-08-28T10:58:24.522Z,25.97
2022-08-28T11:00:56.133Z,26.18
2022-08-28T11:03:34.686Z,26.48
2022-08-28T11:06:11.300Z,26.78
2022-08-28T11:08:40.609Z,26.97
2022-08-28T11:11:14.368Z,27.16
2022-08-28T11:13:51.790Z,27.35
2022-08-28T11:16:22.923Z,27.46
2022-08-28T11:19:43.400Z,27.34
2022-08-28T11:22:16.835Z,27.67
2022-08-28T11:24:50.482Z,27.73
2022-08-28T11:27:26.877Z,28.13
2022-08-28T11:30:04.808Z,28.17
2022-08-28T11:32:58.365Z,28.12
2022-08-28T11:35:49.369Z,27.94
2022-08-28T11:38:52.962Z,28.20
2022-08-28T11:41:26.524Z,28.56
2022-08-28T11:44:29.025Z,28.76
2022-08-28T11:47:36.192Z,29.10
2022-08-28T11:50:12.749Z,29.43
2022-08-28T11:53:07.259Z,29.40
2022-08-28T11:55:51.488Z,29.68
2022-08-28T11:58:28.299Z,29.94
2022-08-28T12:01:04.387Z,30.29
2022-08-28T12:03:36.668Z,30.34
2022-08-28T12:06:05.196Z,29.90
2022-08-28T12:09:10.028Z,29.66
2022-08-28T12:12:05.475Z,29.27
2022-08-28T12:15:07.440Z,29.27
2022-08-28T12:17:47.964Z,29.71
2022-08-28T12:20:39.701Z,29.81
2022-08-28T12:23:39.438Z,30.25
2022-08-28T12:26:10.599Z,30.62
2022-08-28T12:28:47.526Z,31.24
2022-08-28T12:32:02.645Z,31.41
2022-08-28T12:35:02.050Z,31.54
2022-08-28T12:37:51.370Z,31.56
2022-08-28T12:40:24.581Z,31.52
2022-08-28T12:42:55.695Z,31.58
2022-08-28T12:45:27.809Z,31.50
2022-08-28T12:47:59.998Z,32.06
2022-08-28T12:50:32.969Z,32.54
2022-08-28T12:53:01.686Z,32.75
2022-08-28T12:55:29.560Z,33.15
2022-08-28T12:57:57.315Z,33.73
2022-08-28T13:00:33.171Z,34.61
2022-08-28T13:03:01.554Z,35.19
2022-08-28T13:05:36.036Z,35.80
2022-08-28T13:08:07.032Z,36.68
2022-08-28T13:10:37.791Z,36.94
2022-08-28T13:13:08.474Z,37.03
2022-08-28T13:15:57.886Z,36.85
2022-08-28T13:18:45.313Z,36.83
2022-08-28T13:21:33.525Z,36.96
2022-08-28T13:24:42.730Z,36.91
2022-08-28T13:27:22.382Z,37.39
2022-08-28T13:30:00.085Z,37.61
2022-08-28T13:32:30.529Z,37.77
2022-08-28T13:35:24.738Z,36.83
2022-08-28T13:37:55.128Z,35.50
2022-08-28T13:40:55.611Z,35.07
2022-08-28T13:43:15.505Z,35.63
2022-08-28T13:45:48.113Z,36.68
2022-08-28T13:48:17.762Z,36.73
2022-08-28T13:50:47.606Z,37.04
2022-08-28T13:53:20.649Z,36.63
2022-08-28T13:55:50.117Z,36.93
2022-08-28T13:58:19.209Z,37.67
2022-08-28T14:00:48.759Z,37.95
2022-08-28T14:03:34.744Z,37.97
2022-08-28T14:06:03.461Z,38.43
2022-08-28T14:08:31.537Z,38.67
2022-08-28T14:10:59.387Z,38.72
2022-08-28T14:13:28.461Z,38.54
2022-08-28T14:15:57.469Z,37.81
2022-08-28T14:18:25.940Z,36.56
2022-08-28T14:20:53.916Z,36.91
2022-08-28T14:23:22.901Z,37.64
2022-08-28T14:25:50.769Z,38.43
2022-08-28T14:28:18.981Z,39.05
2022-08-28T14:30:50.420Z,40.15
2022-08-28T14:33:20.822Z,40.33
2022-08-28T14:35:49.735Z,41.37
2022-08-28T14:38:17.897Z,41.74
2022-08-28T14:40:46.202Z,42.67
2022-08-28T14:43:15.370Z,42.86
2022-08-28T14:45:45.021Z,42.41
2022-08-28T14:48:14.471Z,42.85
2022-08-28T14:50:43.874Z,43.04
2022-08-28T14:53:12.619Z,43.47
2022-08-28T14:55:42.061Z,42.54
2022-08-28T14:58:09.716Z,42.16
2022-08-28T15:00:42.104Z,42.34
2022-08-28T15:03:10.215Z,41.55
2022-08-28T15:05:39.279Z,41.43
2022-08-28T15:08:08.691Z,41.71
2022-08-28T15:10:38.671Z,41.89
2022-08-28T15:13:07.714Z,41.65
2022-08-28T15:15:36.545Z,41.85
2022-08-28T15:18:04.421Z,42.18
2022-08-28T15:20:32.588Z,41.85
2022-08-28T15:23:01.603Z,42.30
2022-08-28T15:25:29.222Z,42.18
2022-08-28T15:27:56.952Z,41.65
2022-08-28T15:30:24.557Z,42.13
2022-08-28T15:32:52.623Z,41.93
2022-08-28T15:35:20.321Z,41.17
2022-08-28T15:37:47.940Z,42.04
2022-08-28T15:40:34.715Z,41.97
2022-08-28T15:43:02.398Z,41.55
2022-08-28T15:45:30.156Z,41.71
2022-08-28T15:47:58.573Z,41.32
2022-08-28T15:50:26.353Z,41.11
2022-08-28T15:52:53.990Z,41.17
2022-08-28T15:55:23.472Z,41.56
2022-08-28T15:57:51.176Z,41.91
2022-08-28T16:00:19.061Z,41.62
2022-08-28T16:02:46.693Z,42.18
2022-08-28T16:05:14.420Z,42.47
2022-08-28T16:07:42.405Z,42.70
2022-08-28T16:10:13.301Z,42.73
2022-08-28T16:12:42.529Z,43.30
2022-08-28T16:15:12.216Z,43.08
2022-08-28T16:17:39.811Z,43.19
2022-08-28T16:20:12.374Z,43.31
2022-08-28T16:22:41.385Z,43.60
2022-08-28T16:25:10.633Z,43.42
2022-08-28T16:27:38.236Z,42.30
2022-08-28T16:30:15.891Z,42.74
2022-08-28T16:32:59.677Z,42.62
2022-08-28T16:35:27.352Z,41.89
2022-08-28T16:37:54.994Z,40.34
2022-08-28T16:40:23.392Z,40.13
2022-08-28T16:42:52.096Z,40.32
2022-08-28T16:45:21.567Z,40.02
2022-08-28T16:47:50.028Z,39.55
2022-08-28T16:50:19.308Z,40.40
2022-08-28T16:52:47.561Z,40.23
2022-08-28T16:55:15.332Z,40.25
2022-08-28T16:57:43.097Z,39.53
2022-08-28T17:00:13.644Z,38.96
2022-08-28T17:02:43.739Z,38.93
2022-08-28T17:05:12.122Z,38.30
2022-08-28T17:07:40.947Z,38.11
2022-08-28T17:10:10.404Z,37.90
2022-08-28T17:12:38.322Z,37.64
2022-08-28T17:15:07.268Z,37.52
2022-08-28T17:17:35.531Z,37.56
2022-08-28T17:20:07.717Z,37.40
2022-08-28T17:22:34.500Z,37.06
2022-08-28T17:25:07.434Z,36.70
2022-08-28T17:27:36.501Z,36.42
2022-08-28T17:30:05.442Z,36.14
2022-08-28T17:32:33.362Z,35.54
2022-08-28T17:35:05.325Z,34.54
2022-08-28T17:37:33.005Z,34.27
2022-08-28T17:40:00.693Z,34.06
2022-08-28T17:42:28.411Z,33.73
2022-08-28T17:44:56.077Z,33.60
2022-08-28T17:47:30.742Z,33.03
2022-08-28T17:49:59.583Z,32.69
2022-08-28T17:52:29.435Z,31.95
2022-08-28T17:54:57.268Z,31.35
2022-08-28T17:57:25.343Z,30.79
2022-08-28T17:59:52.996Z,30.23
2022-08-28T18:02:20.689Z,29.82
2022-08-28T18:04:48.382Z,29.40
2022-08-28T18:07:16.154Z,28.97
2022-08-28T18:09:45.144Z,28.47
2022-08-28T18:12:13.548Z,28.09
2022-08-28T18:14:41.362Z,27.59
2022-08-28T18:17:10.632Z,27.25
2022-08-28T18:19:39.956Z,26.79
2022-08-28T18:22:08.822Z,26.33
2022-08-28T18:24:36.637Z,26.16
2022-08-28T18:27:07.157Z,25.97
2022-08-28T18:29:35.030Z,25.77
2022-08-28T18:32:02.812Z,25.63
2022-08-28T18:34:32.852Z,25.49
2022-08-28T18:37:00.833Z,25.31
2022-08-28T18:39:29.825Z,25.16
2022-08-28T18:41:58.847Z,24.95
2022-08-28T18:44:27.841Z,24.75
2022-08-28T18:46:55.640Z,24.57
2022-08-28T18:49:23.413Z,24.31
2022-08-28T18:51:51.072Z,24.06
2022-08-28T18:54:20.551Z,23.96
2022-08-28T18:56:49.689Z,23.90
2022-08-28T18:59:18.594Z,23.80
2022-08-28T19:01:47.650Z,23.64
2022-08-28T19:04:15.334Z,23.57
2022-08-28T19:06:43.004Z,23.44
2022-08-28T19:09:20.185Z,23.29
2022-08-28T19:11:48.863Z,23.14
2022-08-28T19:14:16.548Z,23.05
2022-08-28T19:16:44.366Z,22.99
2022-08-28T19:19:15.608Z,22.87
2022-08-28T19:21:43.963Z,22.81
2022-08-28T19:24:11.869Z,22.75
2022-08-28T19:26:39.562Z,22.62
2022-08-28T19:29:07.228Z,22.47
2022-08-28T19:31:37.979Z,22.35
2022-08-28T19:34:07.018Z,22.35
2022-08-28T19:36:36.960Z,22.32
2022-08-28T19:39:04.951Z,22.25
2022-08-28T19:41:36.756Z,22.16
2022-08-28T19:44:05.029Z,22.07
2022-08-28T19:46:34.192Z,22.05
2022-08-28T19:49:03.372Z,21.94
2022-08-28T19:51:31.480Z,21.92
2022-08-28T19:54:00.520Z,21.89
2022-08-28T19:56:29.671Z,21.86
2022-08-28T19:58:59.079Z,21.84
2022-08-28T20:01:29.376Z,21.76
2022-08-28T20:03:57.972Z,21.61
2022-08-28T20:06:25.742Z,21.53
2022-08-28T20:08:53.307Z,21.47
2022-08-28T20:11:24.980Z,21.41
2022-08-28T20:13:53.071Z,21.37
2022-08-28T20:16:21.404Z,21.28
2022-08-28T20:18:50.288Z,21.17
2022-08-28T20:21:36.886Z,21.04
2022-08-28T20:24:07.341Z,20.97
2022-08-28T20:26:36.373Z,20.95
2022-08-28T20:29:04.228Z,20.87
2022-08-28T20:31:31.933Z,20.81
2022-08-28T20:33:59.591Z,20.83
2022-08-28T20:36:27.446Z,20.80
2022-08-28T20:38:55.349Z,20.76
2022-08-28T20:41:23.169Z,20.70
2022-08-28T20:43:52.291Z,20.66
2022-08-28T20:46:20.136Z,20.63
2022-08-28T20:48:47.945Z,20.62
2022-08-28T20:51:15.640Z,20.57
2022-08-28T20:53:43.272Z,20.50
2022-08-28T20:56:11.280Z,20.38
2022-08-28T20:58:39.684Z,20.30
2022-08-28T21:01:08.690Z,20.28
2022-08-28T21:03:36.434Z,20.26
2022-08-28T21:06:04.041Z,20.28
2022-08-28T21:08:31.680Z,20.21
2022-08-28T21:10:59.309Z,20.15
2022-08-28T21:13:27.116Z,20.08
2022-08-28T21:15:54.772Z,20.15
2022-08-28T21:18:23.712Z,20.13
2022-08-28T21:20:51.405Z,20.04
2022-08-28T21:23:19.695Z,19.88
2022-08-28T21:25:48.280Z,19.79
2022-08-28T21:28:16.015Z,19.73
2022-08-28T21:30:43.753Z,19.67
2022-08-28T21:33:11.976Z,19.66
2022-08-28T21:35:42.441Z,19.63
2022-08-28T21:38:10.088Z,19.62
2022-08-28T21:40:37.762Z,19.66
2022-08-28T21:43:05.428Z,19.69
2022-08-28T21:45:33.077Z,19.67
2022-08-28T21:48:00.925Z,19.62
2022-08-28T21:50:29.027Z,19.52
2022-08-28T21:52:58.027Z,19.47
2022-08-28T21:55:25.912Z,19.46
2022-08-28T21:57:53.544Z,19.39
2022-08-28T22:00:24.181Z,19.40
2022-08-28T22:02:52.229Z,19.37
2022-08-28T22:05:20.352Z,19.41
2022-08-28T22:07:48.125Z,19.35
2022-08-28T22:10:17.321Z,19.36
2022-08-28T22:12:44.961Z,19.27
2022-08-28T22:15:13.049Z,19.29
2022-08-28T22:17:40.830Z,19.23
2022-08-28T22:20:09.765Z,19.19
2022-08-28T22:22:54.716Z,19.09
2022-08-28T22:25:24.004Z,18.99
2022-08-28T22:27:51.610Z,19.09
2022-08-28T22:30:19.608Z,19.02
2022-08-28T22:32:47.223Z,19.07
2022-08-28T22:35:14.904Z,19.23
2022-08-28T22:37:42.841Z,19.25
2022-08-28T22:40:13.616Z,19.29
2022-08-28T22:42:43.515Z,19.41
2022-08-28T22:45:11.439Z,19.54
2022-08-28T22:47:39.531Z,19.55
2022-08-28T22:50:08.428Z,19.56
2022-08-28T22:52:37.084Z,19.59
2022-08-28T22:55:06.594Z,19.63
2022-08-28T22:57:34.304Z,19.65
2022-08-28T23:00:05.401Z,19.69
2022-08-28T23:02:33.097Z,19.61
2022-08-28T23:05:00.749Z,19.62
2022-08-28T23:07:28.388Z,19.62
2022-08-28T23:09:56.013Z,19.40
2022-08-28T23:12:24.006Z,19.29
2022-08-28T23:14:51.924Z,19.31
2022-08-28T23:17:20.908Z,19.40
2022-08-28T23:19:49.190Z,19.41
2022-08-28T23:22:17.935Z,19.23
2022-08-28T23:24:46.504Z,19.09
2022-08-28T23:27:35.489Z,19.04
2022-08-28T23:30:02.423Z,19.06
2022-08-28T23:32:31.347Z,19.15
2022-08-28T23:35:01.812Z,19.16
2022-08-28T23:37:29.517Z,19.20
2022-08-28T23:39:58.976Z,19.25
2022-08-28T23:42:28.488Z,19.31
2022-08-28T23:44:56.802Z,19.35
2022-08-28T23:47:24.434Z,19.40
2022-08-28T23:49:53.380Z,19.28
2022-08-28T23:52:20.986Z,19.06
2022-08-28T23:54:49.827Z,18.86
2022-08-28T23:57:17.815Z,18.87
2022-08-28T23:59:45.553Z,18.89
